sensor_id;sensor_type;location;lat;lon;timestamp;P1;durP1;ratioP1;P2;durP2;ratioP2
19396;SDS011;9834;48.076;11.878;2023-07-24T00:01:39;5.50;;;4.37;;
19396;SDS011;9834;48.076;11.878;2023-07-24T00:04:07;8.90;;;4.50;;
19396;SDS011;9834;48.076;11.878;2023-07-24T00:06:34;7.87;;;4.43;;
19396;SDS011;9834;48.076;11.878;2023-07-24T00:09:02;6.10;;;3.93;;
19396;SDS011;9834;48.076;11.878;2023-07-24T00:11:29;7.60;;;4.63;;
19396;SDS011;9834;48.076;11.878;2023-07-24T00:13:56;7.10;;;4.30;;
19396;SDS011;9834;48.076;11.878;2023-07-24T00:16:22;7.07;;;4.20;;
19396;SDS011;9834;48.076;11.878;2023-07-24T00:18:49;5.73;;;4.57;;
19396;SDS011;9834;48.076;11.878;2023-07-24T00:21:16;5.40;;;4.03;;
19396;SDS011;9834;48.076;11.878;2023-07-24T00:23:43;15.13;;;4.20;;
19396;SDS011;9834;48.076;11.878;2023-07-24T00:26:11;5.50;;;4.00;;
19396;SDS011;9834;48.076;11.878;2023-07-24T00:28:38;7.93;;;3.80;;
19396;SDS011;9834;48.076;11.878;2023-07-24T00:31:05;6.83;;;3.43;;
19396;SDS011;9834;48.076;11.878;2023-07-24T00:33:32;5.83;;;3.83;;
19396;SDS011;9834;48.076;11.878;2023-07-24T00:35:59;3.83;;;3.43;;
19396;SDS011;9834;48.076;11.878;2023-07-24T00:38:26;3.83;;;3.37;;
19396;SDS011;9834;48.076;11.878;2023-07-24T00:40:52;5.10;;;4.37;;
19396;SDS011;9834;48.076;11.878;2023-07-24T00:43:21;9.00;;;4.90;;
19396;SDS011;9834;48.076;11.878;2023-07-24T00:45:47;7.50;;;4.27;;
19396;SDS011;9834;48.076;11.878;2023-07-24T00:48:15;6.73;;;3.93;;
19396;SDS011;9834;48.076;11.878;2023-07-24T00:50:43;5.47;;;4.13;;
19396;SDS011;9834;48.076;11.878;2023-07-24T00:53:11;5.27;;;4.03;;
19396;SDS011;9834;48.076;11.878;2023-07-24T00:55:39;3.97;;;3.53;;
19396;SDS011;9834;48.076;11.878;2023-07-24T00:58:08;4.30;;;3.77;;
19396;SDS011;9834;48.076;11.878;2023-07-24T01:00:38;4.30;;;3.83;;
19396;SDS011;9834;48.076;11.878;2023-07-24T01:03:07;5.73;;;3.63;;
19396;SDS011;9834;48.076;11.878;2023-07-24T01:05:34;5.03;;;4.30;;
19396;SDS011;9834;48.076;11.878;2023-07-24T01:08:00;6.00;;;4.03;;
19396;SDS011;9834;48.076;11.878;2023-07-24T01:10:27;5.93;;;4.13;;
19396;SDS011;9834;48.076;11.878;2023-07-24T01:12:56;5.97;;;3.83;;
19396;SDS011;9834;48.076;11.878;2023-07-24T01:15:28;5.20;;;3.97;;
19396;SDS011;9834;48.076;11.878;2023-07-24T01:18:00;5.07;;;4.40;;
19396;SDS011;9834;48.076;11.878;2023-07-24T01:20:32;4.77;;;4.20;;
19396;SDS011;9834;48.076;11.878;2023-07-24T01:23:06;7.77;;;3.60;;
19396;SDS011;9834;48.076;11.878;2023-07-24T01:25:55;6.17;;;4.40;;
19396;SDS011;9834;48.076;11.878;2023-07-24T01:28:23;4.57;;;4.17;;
19396;SDS011;9834;48.076;11.878;2023-07-24T01:30:49;6.80;;;4.30;;
19396;SDS011;9834;48.076;11.878;2023-07-24T01:33:16;6.23;;;3.90;;
19396;SDS011;9834;48.076;11.878;2023-07-24T01:35:44;7.10;;;4.47;;
19396;SDS011;9834;48.076;11.878;2023-07-24T01:38:11;7.17;;;4.00;;
19396;SDS011;9834;48.076;11.878;2023-07-24T01:40:39;4.40;;;3.90;;
19396;SDS011;9834;48.076;11.878;2023-07-24T01:43:08;5.07;;;4.53;;
19396;SDS011;9834;48.076;11.878;2023-07-24T01:45:35;6.00;;;3.77;;
19396;SDS011;9834;48.076;11.878;2023-07-24T01:48:03;3.87;;;3.40;;
19396;SDS011;9834;48.076;11.878;2023-07-24T01:50:30;4.20;;;3.67;;
19396;SDS011;9834;48.076;11.878;2023-07-24T01:52:57;4.37;;;3.70;;
19396;SDS011;9834;48.076;11.878;2023-07-24T01:55:24;4.70;;;3.90;;
19396;SDS011;9834;48.076;11.878;2023-07-24T01:57:51;4.97;;;3.83;;
19396;SDS011;9834;48.076;11.878;2023-07-24T02:00:19;5.00;;;3.70;;
19396;SDS011;9834;48.076;11.878;2023-07-24T02:02:46;6.67;;;3.83;;
19396;SDS011;9834;48.076;11.878;2023-07-24T02:05:13;4.33;;;3.43;;
19396;SDS011;9834;48.076;11.878;2023-07-24T02:07:40;5.73;;;4.03;;
19396;SDS011;9834;48.076;11.878;2023-07-24T02:10:10;7.80;;;4.83;;
19396;SDS011;9834;48.076;11.878;2023-07-24T02:12:37;5.27;;;4.23;;
19396;SDS011;9834;48.076;11.878;2023-07-24T02:15:04;5.13;;;3.93;;
19396;SDS011;9834;48.076;11.878;2023-07-24T02:17:36;5.67;;;4.10;;
19396;SDS011;9834;48.076;11.878;2023-07-24T02:20:04;9.30;;;4.80;;
19396;SDS011;9834;48.076;11.878;2023-07-24T02:22:31;4.13;;;3.13;;
19396;SDS011;9834;48.076;11.878;2023-07-24T02:24:59;5.60;;;3.67;;
19396;SDS011;9834;48.076;11.878;2023-07-24T02:27:26;8.20;;;4.77;;
19396;SDS011;9834;48.076;11.878;2023-07-24T02:29:54;15.90;;;5.43;;
19396;SDS011;9834;48.076;11.878;2023-07-24T02:32:20;5.10;;;4.10;;
19396;SDS011;9834;48.076;11.878;2023-07-24T02:34:51;7.70;;;3.40;;
19396;SDS011;9834;48.076;11.878;2023-07-24T02:37:18;4.47;;;3.43;;
19396;SDS011;9834;48.076;11.878;2023-07-24T02:39:46;5.27;;;4.07;;
19396;SDS011;9834;48.076;11.878;2023-07-24T02:42:12;7.80;;;4.20;;
19396;SDS011;9834;48.076;11.878;2023-07-24T02:44:45;7.33;;;4.57;;
19396;SDS011;9834;48.076;11.878;2023-07-24T02:47:12;4.33;;;3.67;;
19396;SDS011;9834;48.076;11.878;2023-07-24T02:49:39;5.57;;;3.23;;
19396;SDS011;9834;48.076;11.878;2023-07-24T02:52:07;8.37;;;3.60;;
19396;SDS011;9834;48.076;11.878;2023-07-24T02:54:37;9.77;;;4.13;;
19396;SDS011;9834;48.076;11.878;2023-07-24T02:57:04;6.53;;;4.97;;
19396;SDS011;9834;48.076;11.878;2023-07-24T02:59:31;8.73;;;3.83;;
19396;SDS011;9834;48.076;11.878;2023-07-24T03:02:00;4.20;;;3.80;;
19396;SDS011;9834;48.076;11.878;2023-07-24T03:04:27;5.70;;;3.73;;
19396;SDS011;9834;48.076;11.878;2023-07-24T03:06:53;5.00;;;3.60;;
19396;SDS011;9834;48.076;11.878;2023-07-24T03:09:22;6.50;;;4.47;;
19396;SDS011;9834;48.076;11.878;2023-07-24T03:11:48;5.40;;;4.17;;
19396;SDS011;9834;48.076;11.878;2023-07-24T03:14:15;8.60;;;4.23;;
19396;SDS011;9834;48.076;11.878;2023-07-24T03:16:42;4.83;;;3.63;;
19396;SDS011;9834;48.076;11.878;2023-07-24T03:19:09;3.97;;;3.53;;
19396;SDS011;9834;48.076;11.878;2023-07-24T03:21:36;5.10;;;3.83;;
19396;SDS011;9834;48.076;11.878;2023-07-24T03:24:03;3.83;;;3.50;;
19396;SDS011;9834;48.076;11.878;2023-07-24T03:26:31;6.43;;;4.73;;
19396;SDS011;9834;48.076;11.878;2023-07-24T03:28:59;8.17;;;3.50;;
19396;SDS011;9834;48.076;11.878;2023-07-24T03:31:26;4.53;;;4.10;;
19396;SDS011;9834;48.076;11.878;2023-07-24T03:33:53;6.20;;;4.43;;
19396;SDS011;9834;48.076;11.878;2023-07-24T03:36:20;7.97;;;5.10;;
19396;SDS011;9834;48.076;11.878;2023-07-24T03:38:46;9.87;;;4.63;;
19396;SDS011;9834;48.076;11.878;2023-07-24T03:41:13;5.40;;;4.70;;
19396;SDS011;9834;48.076;11.878;2023-07-24T03:43:42;6.67;;;4.80;;
19396;SDS011;9834;48.076;11.878;2023-07-24T03:46:08;10.17;;;4.87;;
19396;SDS011;9834;48.076;11.878;2023-07-24T03:48:35;5.93;;;5.33;;
19396;SDS011;9834;48.076;11.878;2023-07-24T03:51:05;5.50;;;4.97;;
19396;SDS011;9834;48.076;11.878;2023-07-24T03:53:33;4.93;;;4.43;;
19396;SDS011;9834;48.076;11.878;2023-07-24T03:56:00;4.70;;;4.23;;
19396;SDS011;9834;48.076;11.878;2023-07-24T03:58:27;5.00;;;4.43;;
19396;SDS011;9834;48.076;11.878;2023-07-24T04:00:55;7.83;;;5.20;;
19396;SDS011;9834;48.076;11.878;2023-07-24T04:03:22;5.53;;;4.93;;
19396;SDS011;9834;48.076;11.878;2023-07-24T04:05:49;6.57;;;5.13;;
19396;SDS011;9834;48.076;11.878;2023-07-24T04:08:15;6.33;;;5.37;;
19396;SDS011;9834;48.076;11.878;2023-07-24T04:10:42;7.50;;;4.77;;
19396;SDS011;9834;48.076;11.878;2023-07-24T04:13:09;7.47;;;5.70;;
19396;SDS011;9834;48.076;11.878;2023-07-24T04:15:36;6.00;;;4.60;;
19396;SDS011;9834;48.076;11.878;2023-07-24T04:18:04;9.20;;;6.10;;
19396;SDS011;9834;48.076;11.878;2023-07-24T04:20:31;8.17;;;5.17;;
19396;SDS011;9834;48.076;11.878;2023-07-24T04:22:58;7.33;;;5.47;;
19396;SDS011;9834;48.076;11.878;2023-07-24T04:25:25;6.73;;;5.63;;
19396;SDS011;9834;48.076;11.878;2023-07-24T04:27:52;8.80;;;6.50;;
19396;SDS011;9834;48.076;11.878;2023-07-24T04:30:19;5.63;;;5.10;;
19396;SDS011;9834;48.076;11.878;2023-07-24T04:32:45;7.07;;;5.60;;
19396;SDS011;9834;48.076;11.878;2023-07-24T04:35:14;7.37;;;5.40;;
19396;SDS011;9834;48.076;11.878;2023-07-24T04:37:44;7.60;;;5.17;;
19396;SDS011;9834;48.076;11.878;2023-07-24T04:40:11;9.87;;;5.43;;
19396;SDS011;9834;48.076;11.878;2023-07-24T04:42:38;7.00;;;5.10;;
19396;SDS011;9834;48.076;11.878;2023-07-24T04:45:05;10.70;;;6.77;;
19396;SDS011;9834;48.076;11.878;2023-07-24T04:47:33;6.93;;;5.13;;
19396;SDS011;9834;48.076;11.878;2023-07-24T04:50:01;11.83;;;6.60;;
19396;SDS011;9834;48.076;11.878;2023-07-24T04:52:30;7.70;;;5.50;;
19396;SDS011;9834;48.076;11.878;2023-07-24T04:54:57;9.40;;;6.47;;
19396;SDS011;9834;48.076;11.878;2023-07-24T04:57:24;6.63;;;5.10;;
19396;SDS011;9834;48.076;11.878;2023-07-24T04:59:50;9.80;;;5.00;;
19396;SDS011;9834;48.076;11.878;2023-07-24T05:02:17;10.00;;;6.27;;
19396;SDS011;9834;48.076;11.878;2023-07-24T05:04:44;8.17;;;5.57;;
19396;SDS011;9834;48.076;11.878;2023-07-24T05:07:12;7.83;;;5.83;;
19396;SDS011;9834;48.076;11.878;2023-07-24T05:09:40;8.50;;;5.77;;
19396;SDS011;9834;48.076;11.878;2023-07-24T05:12:10;13.07;;;4.70;;
19396;SDS011;9834;48.076;11.878;2023-07-24T05:14:37;6.37;;;4.90;;
19396;SDS011;9834;48.076;11.878;2023-07-24T05:17:03;7.67;;;5.30;;
19396;SDS011;9834;48.076;11.878;2023-07-24T05:19:30;8.03;;;5.13;;
19396;SDS011;9834;48.076;11.878;2023-07-24T05:21:57;6.73;;;5.40;;
19396;SDS011;9834;48.076;11.878;2023-07-24T05:24:24;6.27;;;5.10;;
19396;SDS011;9834;48.076;11.878;2023-07-24T05:26:52;5.47;;;4.83;;
19396;SDS011;9834;48.076;11.878;2023-07-24T05:29:19;5.50;;;4.87;;
19396;SDS011;9834;48.076;11.878;2023-07-24T05:31:47;6.10;;;5.03;;
19396;SDS011;9834;48.076;11.878;2023-07-24T05:34:13;6.50;;;5.17;;
19396;SDS011;9834;48.076;11.878;2023-07-24T05:36:40;6.80;;;5.47;;
19396;SDS011;9834;48.076;11.878;2023-07-24T05:39:07;9.93;;;5.87;;
19396;SDS011;9834;48.076;11.878;2023-07-24T05:41:34;5.03;;;4.50;;
19396;SDS011;9834;48.076;11.878;2023-07-24T05:44:02;6.40;;;5.20;;
19396;SDS011;9834;48.076;11.878;2023-07-24T05:46:29;8.80;;;5.90;;
19396;SDS011;9834;48.076;11.878;2023-07-24T05:48:56;7.83;;;5.37;;
19396;SDS011;9834;48.076;11.878;2023-07-24T05:51:25;13.23;;;5.83;;
19396;SDS011;9834;48.076;11.878;2023-07-24T05:53:52;7.50;;;5.13;;
19396;SDS011;9834;48.076;11.878;2023-07-24T05:56:19;7.27;;;4.60;;
19396;SDS011;9834;48.076;11.878;2023-07-24T05:58:46;8.23;;;5.77;;
19396;SDS011;9834;48.076;11.878;2023-07-24T06:01:14;13.57;;;5.40;;
19396;SDS011;9834;48.076;11.878;2023-07-24T06:03:41;4.77;;;4.37;;
19396;SDS011;9834;48.076;11.878;2023-07-24T06:06:08;7.60;;;5.30;;
19396;SDS011;9834;48.076;11.878;2023-07-24T06:08:35;4.50;;;4.10;;
19396;SDS011;9834;48.076;11.878;2023-07-24T06:11:00;7.17;;;5.17;;
19396;SDS011;9834;48.076;11.878;2023-07-24T06:13:27;8.10;;;5.83;;
19396;SDS011;9834;48.076;11.878;2023-07-24T06:15:54;5.83;;;4.40;;
19396;SDS011;9834;48.076;11.878;2023-07-24T06:18:22;5.20;;;4.18;;
19396;SDS011;9834;48.076;11.878;2023-07-24T06:20:51;7.18;;;4.78;;
19396;SDS011;9834;48.076;11.878;2023-07-24T06:23:19;7.05;;;5.00;;
19396;SDS011;9834;48.076;11.878;2023-07-24T06:25:45;10.10;;;4.30;;
19396;SDS011;9834;48.076;11.878;2023-07-24T06:28:15;7.18;;;4.28;;
19396;SDS011;9834;48.076;11.878;2023-07-24T06:30:42;4.88;;;4.20;;
19396;SDS011;9834;48.076;11.878;2023-07-24T06:33:09;8.27;;;4.82;;
19396;SDS011;9834;48.076;11.878;2023-07-24T06:35:37;8.98;;;5.32;;
19396;SDS011;9834;48.076;11.878;2023-07-24T06:38:04;11.07;;;4.47;;
19396;SDS011;9834;48.076;11.878;2023-07-24T06:40:33;5.97;;;4.18;;
19396;SDS011;9834;48.076;11.878;2023-07-24T06:43:00;8.95;;;4.68;;
19396;SDS011;9834;48.076;11.878;2023-07-24T06:45:27;6.57;;;5.15;;
19396;SDS011;9834;48.076;11.878;2023-07-24T06:47:53;5.75;;;4.18;;
19396;SDS011;9834;48.076;11.878;2023-07-24T06:50:20;9.63;;;4.90;;
19396;SDS011;9834;48.076;11.878;2023-07-24T06:52:49;8.15;;;5.38;;
19396;SDS011;9834;48.076;11.878;2023-07-24T06:55:17;5.30;;;3.95;;
19396;SDS011;9834;48.076;11.878;2023-07-24T06:57:43;4.50;;;4.10;;
19396;SDS011;9834;48.076;11.878;2023-07-24T07:00:11;6.93;;;5.50;;
19396;SDS011;9834;48.076;11.878;2023-07-24T07:02:38;6.20;;;4.70;;
19396;SDS011;9834;48.076;11.878;2023-07-24T07:05:05;9.77;;;4.72;;
19396;SDS011;9834;48.076;11.878;2023-07-24T07:07:33;9.15;;;4.68;;
19396;SDS011;9834;48.076;11.878;2023-07-24T07:10:04;9.18;;;5.57;;
19396;SDS011;9834;48.076;11.878;2023-07-24T07:12:32;7.38;;;4.85;;
19396;SDS011;9834;48.076;11.878;2023-07-24T07:14:59;7.03;;;4.60;;
19396;SDS011;9834;48.076;11.878;2023-07-24T07:17:25;6.65;;;4.68;;
19396;SDS011;9834;48.076;11.878;2023-07-24T07:19:52;7.72;;;4.70;;
19396;SDS011;9834;48.076;11.878;2023-07-24T07:22:21;8.40;;;4.45;;
19396;SDS011;9834;48.076;11.878;2023-07-24T07:24:48;6.85;;;5.00;;
19396;SDS011;9834;48.076;11.878;2023-07-24T07:27:17;9.85;;;5.43;;
19396;SDS011;9834;48.076;11.878;2023-07-24T07:29:43;7.97;;;4.65;;
19396;SDS011;9834;48.076;11.878;2023-07-24T07:32:10;9.63;;;5.38;;
19396;SDS011;9834;48.076;11.878;2023-07-24T07:34:37;7.20;;;5.00;;
19396;SDS011;9834;48.076;11.878;2023-07-24T07:37:04;6.85;;;4.50;;
19396;SDS011;9834;48.076;11.878;2023-07-24T07:39:32;8.88;;;5.03;;
19396;SDS011;9834;48.076;11.878;2023-07-24T07:41:58;8.82;;;4.32;;
19396;SDS011;9834;48.076;11.878;2023-07-24T07:44:27;8.20;;;5.43;;
19396;SDS011;9834;48.076;11.878;2023-07-24T07:46:53;5.20;;;4.30;;
19396;SDS011;9834;48.076;11.878;2023-07-24T07:49:20;6.97;;;4.65;;
19396;SDS011;9834;48.076;11.878;2023-07-24T07:51:47;5.05;;;4.38;;
19396;SDS011;9834;48.076;11.878;2023-07-24T07:54:14;8.38;;;4.75;;
19396;SDS011;9834;48.076;11.878;2023-07-24T07:56:41;4.68;;;4.13;;
19396;SDS011;9834;48.076;11.878;2023-07-24T07:59:08;5.35;;;4.53;;
19396;SDS011;9834;48.076;11.878;2023-07-24T08:01:37;5.63;;;5.03;;
19396;SDS011;9834;48.076;11.878;2023-07-24T08:04:05;6.22;;;4.82;;
19396;SDS011;9834;48.076;11.878;2023-07-24T08:06:32;7.55;;;4.07;;
19396;SDS011;9834;48.076;11.878;2023-07-24T08:08:59;6.10;;;4.93;;
19396;SDS011;9834;48.076;11.878;2023-07-24T08:11:25;7.13;;;4.80;;
19396;SDS011;9834;48.076;11.878;2023-07-24T08:13:52;6.50;;;4.80;;
19396;SDS011;9834;48.076;11.878;2023-07-24T08:16:19;4.68;;;4.22;;
19396;SDS011;9834;48.076;11.878;2023-07-24T08:18:47;7.85;;;5.00;;
19396;SDS011;9834;48.076;11.878;2023-07-24T08:21:14;7.93;;;4.32;;
19396;SDS011;9834;48.076;11.878;2023-07-24T08:23:41;8.65;;;4.47;;
19396;SDS011;9834;48.076;11.878;2023-07-24T08:26:08;5.30;;;4.05;;
19396;SDS011;9834;48.076;11.878;2023-07-24T08:28:36;3.75;;;3.45;;
19396;SDS011;9834;48.076;11.878;2023-07-24T08:31:07;4.80;;;4.30;;
19396;SDS011;9834;48.076;11.878;2023-07-24T08:33:34;4.95;;;4.30;;
19396;SDS011;9834;48.076;11.878;2023-07-24T08:36:03;4.15;;;3.72;;
19396;SDS011;9834;48.076;11.878;2023-07-24T08:38:31;6.63;;;4.10;;
19396;SDS011;9834;48.076;11.878;2023-07-24T08:41:02;4.55;;;3.90;;
19396;SDS011;9834;48.076;11.878;2023-07-24T08:43:30;4.30;;;3.88;;
19396;SDS011;9834;48.076;11.878;2023-07-24T08:45:59;4.45;;;3.90;;
19396;SDS011;9834;48.076;11.878;2023-07-24T08:48:26;6.38;;;3.88;;
19396;SDS011;9834;48.076;11.878;2023-07-24T08:51:00;5.97;;;4.60;;
19396;SDS011;9834;48.076;11.878;2023-07-24T08:53:29;7.25;;;5.20;;
19396;SDS011;9834;48.076;11.878;2023-07-24T08:55:57;6.72;;;4.07;;
19396;SDS011;9834;48.076;11.878;2023-07-24T08:58:25;4.05;;;3.65;;
19396;SDS011;9834;48.076;11.878;2023-07-24T09:00:52;7.07;;;4.28;;
19396;SDS011;9834;48.076;11.878;2023-07-24T09:03:19;8.88;;;4.32;;
19396;SDS011;9834;48.076;11.878;2023-07-24T09:05:46;5.53;;;3.63;;
19396;SDS011;9834;48.076;11.878;2023-07-24T09:08:15;8.15;;;4.40;;
19396;SDS011;9834;48.076;11.878;2023-07-24T09:10:41;3.95;;;3.45;;
19396;SDS011;9834;48.076;11.878;2023-07-24T09:13:11;5.45;;;3.70;;
19396;SDS011;9834;48.076;11.878;2023-07-24T09:15:41;8.65;;;4.35;;
19396;SDS011;9834;48.076;11.878;2023-07-24T09:18:09;8.98;;;3.50;;
19396;SDS011;9834;48.076;11.878;2023-07-24T09:20:39;3.85;;;3.25;;
19396;SDS011;9834;48.076;11.878;2023-07-24T09:23:07;5.30;;;3.55;;
19396;SDS011;9834;48.076;11.878;2023-07-24T09:25:37;3.92;;;3.42;;
19396;SDS011;9834;48.076;11.878;2023-07-24T09:28:11;4.53;;;3.53;;
19396;SDS011;9834;48.076;11.878;2023-07-24T09:30:38;4.30;;;3.22;;
19396;SDS011;9834;48.076;11.878;2023-07-24T09:33:06;6.55;;;4.47;;
19396;SDS011;9834;48.076;11.878;2023-07-24T09:35:33;5.95;;;3.58;;
19396;SDS011;9834;48.076;11.878;2023-07-24T09:38:04;3.97;;;3.53;;
19396;SDS011;9834;48.076;11.878;2023-07-24T09:40:40;5.07;;;2.92;;
19396;SDS011;9834;48.076;11.878;2023-07-24T09:43:14;3.72;;;3.15;;
19396;SDS011;9834;48.076;11.878;2023-07-24T09:45:42;3.70;;;3.35;;
19396;SDS011;9834;48.076;11.878;2023-07-24T09:48:10;11.07;;;3.78;;
19396;SDS011;9834;48.076;11.878;2023-07-24T09:50:40;6.03;;;4.00;;
19396;SDS011;9834;48.076;11.878;2023-07-24T09:53:09;5.43;;;4.53;;
19396;SDS011;9834;48.076;11.878;2023-07-24T09:55:43;3.65;;;3.35;;
19396;SDS011;9834;48.076;11.878;2023-07-24T09:58:17;4.85;;;2.97;;
19396;SDS011;9834;48.076;11.878;2023-07-24T10:00:46;4.80;;;3.10;;
19396;SDS011;9834;48.076;11.878;2023-07-24T10:03:15;5.22;;;3.45;;
19396;SDS011;9834;48.076;11.878;2023-07-24T10:05:43;4.38;;;3.08;;
19396;SDS011;9834;48.076;11.878;2023-07-24T10:08:10;3.45;;;3.13;;
19396;SDS011;9834;48.076;11.878;2023-07-24T10:10:38;4.43;;;3.45;;
19396;SDS011;9834;48.076;11.878;2023-07-24T10:13:06;4.30;;;3.25;;
19396;SDS011;9834;48.076;11.878;2023-07-24T10:15:36;3.80;;;3.25;;
19396;SDS011;9834;48.076;11.878;2023-07-24T10:18:04;4.47;;;3.47;;
19396;SDS011;9834;48.076;11.878;2023-07-24T10:20:32;4.88;;;3.40;;
19396;SDS011;9834;48.076;11.878;2023-07-24T10:23:01;3.78;;;3.03;;
19396;SDS011;9834;48.076;11.878;2023-07-24T10:25:29;3.97;;;3.05;;
19396;SDS011;9834;48.076;11.878;2023-07-24T10:28:00;3.38;;;3.05;;
19396;SDS011;9834;48.076;11.878;2023-07-24T10:30:33;3.58;;;2.42;;
19396;SDS011;9834;48.076;11.878;2023-07-24T10:33:03;3.92;;;3.42;;
19396;SDS011;9834;48.076;11.878;2023-07-24T10:35:38;7.07;;;3.70;;
19396;SDS011;9834;48.076;11.878;2023-07-24T10:38:06;2.85;;;2.65;;
19396;SDS011;9834;48.076;11.878;2023-07-24T10:40:34;5.18;;;3.53;;
19396;SDS011;9834;48.076;11.878;2023-07-24T10:43:03;3.78;;;3.15;;
19396;SDS011;9834;48.076;11.878;2023-07-24T10:45:39;4.88;;;3.20;;
19396;SDS011;9834;48.076;11.878;2023-07-24T10:48:13;6.85;;;3.70;;
19396;SDS011;9834;48.076;11.878;2023-07-24T10:50:40;3.78;;;2.65;;
19396;SDS011;9834;48.076;11.878;2023-07-24T10:53:08;3.00;;;2.72;;
19396;SDS011;9834;48.076;11.878;2023-07-24T10:55:36;3.70;;;3.00;;
19396;SDS011;9834;48.076;11.878;2023-07-24T10:58:03;5.38;;;3.30;;
19396;SDS011;9834;48.076;11.878;2023-07-24T11:00:30;3.70;;;2.45;;
19396;SDS011;9834;48.076;11.878;2023-07-24T11:02:58;3.58;;;3.00;;
19396;SDS011;9834;48.076;11.878;2023-07-24T11:05:25;5.13;;;3.67;;
19396;SDS011;9834;48.076;11.878;2023-07-24T11:07:52;4.05;;;2.10;;
19396;SDS011;9834;48.076;11.878;2023-07-24T11:10:21;3.53;;;2.83;;
19396;SDS011;9834;48.076;11.878;2023-07-24T11:12:49;2.88;;;2.40;;
19396;SDS011;9834;48.076;11.878;2023-07-24T11:15:22;5.90;;;3.25;;
19396;SDS011;9834;48.076;11.878;2023-07-24T11:17:51;3.42;;;3.13;;
19396;SDS011;9834;48.076;11.878;2023-07-24T11:20:19;3.03;;;2.55;;
19396;SDS011;9834;48.076;11.878;2023-07-24T11:22:46;3.30;;;2.53;;
19396;SDS011;9834;48.076;11.878;2023-07-24T11:25:13;4.40;;;2.63;;
19396;SDS011;9834;48.076;11.878;2023-07-24T11:27:41;2.90;;;2.67;;
19396;SDS011;9834;48.076;11.878;2023-07-24T11:30:09;5.47;;;2.72;;
19396;SDS011;9834;48.076;11.878;2023-07-24T11:32:38;3.25;;;2.95;;
19396;SDS011;9834;48.076;11.878;2023-07-24T11:35:05;5.47;;;2.63;;
19396;SDS011;9834;48.076;11.878;2023-07-24T11:37:35;3.03;;;2.78;;
19396;SDS011;9834;48.076;11.878;2023-07-24T11:40:03;7.30;;;3.03;;
19396;SDS011;9834;48.076;11.878;2023-07-24T11:42:36;2.70;;;2.47;;
19396;SDS011;9834;48.076;11.878;2023-07-24T11:45:06;2.88;;;2.67;;
19396;SDS011;9834;48.076;11.878;2023-07-24T11:47:41;3.65;;;2.67;;
19396;SDS011;9834;48.076;11.878;2023-07-24T11:50:12;3.08;;;2.88;;
19396;SDS011;9834;48.076;11.878;2023-07-24T11:52:41;2.50;;;2.30;;
19396;SDS011;9834;48.076;11.878;2023-07-24T11:55:09;3.72;;;3.17;;
19396;SDS011;9834;48.076;11.878;2023-07-24T11:57:36;3.10;;;2.72;;
19396;SDS011;9834;48.076;11.878;2023-07-24T12:00:04;3.53;;;3.20;;
19396;SDS011;9834;48.076;11.878;2023-07-24T12:02:35;3.95;;;2.90;;
19396;SDS011;9834;48.076;11.878;2023-07-24T12:05:01;2.90;;;2.67;;
19396;SDS011;9834;48.076;11.878;2023-07-24T12:07:32;3.72;;;3.38;;
19396;SDS011;9834;48.076;11.878;2023-07-24T12:10:04;5.50;;;2.75;;
19396;SDS011;9834;48.076;11.878;2023-07-24T12:12:38;4.43;;;3.65;;
19396;SDS011;9834;48.076;11.878;2023-07-24T12:15:07;2.70;;;2.22;;
19396;SDS011;9834;48.076;11.878;2023-07-24T12:17:35;2.72;;;2.20;;
19396;SDS011;9834;48.076;11.878;2023-07-24T12:20:02;5.65;;;3.30;;
19396;SDS011;9834;48.076;11.878;2023-07-24T12:22:31;3.17;;;2.70;;
19396;SDS011;9834;48.076;11.878;2023-07-24T12:24:57;3.10;;;2.30;;
19396;SDS011;9834;48.076;11.878;2023-07-24T12:27:26;2.55;;;2.35;;
19396;SDS011;9834;48.076;11.878;2023-07-24T12:29:53;3.25;;;2.72;;
19396;SDS011;9834;48.076;11.878;2023-07-24T12:32:20;3.28;;;2.75;;
19396;SDS011;9834;48.076;11.878;2023-07-24T12:34:48;3.58;;;3.00;;
19396;SDS011;9834;48.076;11.878;2023-07-24T12:37:16;2.83;;;2.63;;
19396;SDS011;9834;48.076;11.878;2023-07-24T12:39:43;5.40;;;2.83;;
19396;SDS011;9834;48.076;11.878;2023-07-24T12:42:10;3.92;;;3.50;;
19396;SDS011;9834;48.076;11.878;2023-07-24T12:44:38;4.85;;;3.70;;
19396;SDS011;9834;48.076;11.878;2023-07-24T12:47:05;4.38;;;2.42;;
19396;SDS011;9834;48.076;11.878;2023-07-24T12:49:32;5.00;;;2.95;;
19396;SDS011;9834;48.076;11.878;2023-07-24T12:51:59;3.13;;;2.53;;
19396;SDS011;9834;48.076;11.878;2023-07-24T12:54:26;4.03;;;2.90;;
19396;SDS011;9834;48.076;11.878;2023-07-24T12:56:53;5.05;;;2.92;;
19396;SDS011;9834;48.076;11.878;2023-07-24T12:59:20;3.17;;;2.88;;
19396;SDS011;9834;48.076;11.878;2023-07-24T13:01:49;5.57;;;2.92;;
19396;SDS011;9834;48.076;11.878;2023-07-24T13:04:15;10.50;;;3.38;;
19396;SDS011;9834;48.076;11.878;2023-07-24T13:06:42;6.47;;;3.03;;
19396;SDS011;9834;48.076;11.878;2023-07-24T13:09:10;4.57;;;2.67;;
19396;SDS011;9834;48.076;11.878;2023-07-24T13:11:37;4.72;;;3.00;;
19396;SDS011;9834;48.076;11.878;2023-07-24T13:14:03;4.57;;;3.28;;
19396;SDS011;9834;48.076;11.878;2023-07-24T13:16:30;7.03;;;3.53;;
19396;SDS011;9834;48.076;11.878;2023-07-24T13:19:01;2.40;;;2.20;;
19396;SDS011;9834;48.076;11.878;2023-07-24T13:21:27;4.93;;;3.37;;
19396;SDS011;9834;48.076;11.878;2023-07-24T13:23:54;5.20;;;2.73;;
19396;SDS011;9834;48.076;11.878;2023-07-24T13:26:22;4.70;;;4.03;;
19396;SDS011;9834;48.076;11.878;2023-07-24T13:28:49;4.33;;;3.87;;
19396;SDS011;9834;48.076;11.878;2023-07-24T13:31:16;4.30;;;3.87;;
19396;SDS011;9834;48.076;11.878;2023-07-24T13:33:45;6.03;;;4.37;;
19396;SDS011;9834;48.076;11.878;2023-07-24T13:36:14;6.60;;;3.80;;
19396;SDS011;9834;48.076;11.878;2023-07-24T13:38:40;5.77;;;4.03;;
19396;SDS011;9834;48.076;11.878;2023-07-24T13:41:07;11.87;;;4.70;;
19396;SDS011;9834;48.076;11.878;2023-07-24T13:43:35;3.50;;;3.10;;
19396;SDS011;9834;48.076;11.878;2023-07-24T13:46:01;3.17;;;2.93;;
19396;SDS011;9834;48.076;11.878;2023-07-24T13:48:29;6.23;;;3.93;;
19396;SDS011;9834;48.076;11.878;2023-07-24T13:50:56;3.90;;;3.20;;
19396;SDS011;9834;48.076;11.878;2023-07-24T13:53:25;7.83;;;4.00;;
19396;SDS011;9834;48.076;11.878;2023-07-24T13:55:52;9.47;;;4.07;;
19396;SDS011;9834;48.076;11.878;2023-07-24T13:58:19;3.25;;;2.95;;
19396;SDS011;9834;48.076;11.878;2023-07-24T14:00:46;3.88;;;3.50;;
19396;SDS011;9834;48.076;11.878;2023-07-24T14:03:13;3.10;;;2.90;;
19396;SDS011;9834;48.076;11.878;2023-07-24T14:05:39;3.50;;;3.20;;
19396;SDS011;9834;48.076;11.878;2023-07-24T14:08:06;4.13;;;2.70;;
19396;SDS011;9834;48.076;11.878;2023-07-24T14:10:35;5.95;;;3.53;;
19396;SDS011;9834;48.076;11.878;2023-07-24T14:13:04;8.13;;;3.22;;
19396;SDS011;9834;48.076;11.878;2023-07-24T14:15:30;3.60;;;2.63;;
19396;SDS011;9834;48.076;11.878;2023-07-24T14:17:57;6.63;;;3.33;;
19396;SDS011;9834;48.076;11.878;2023-07-24T14:20:24;2.58;;;2.38;;
19396;SDS011;9834;48.076;11.878;2023-07-24T14:22:51;3.38;;;2.53;;
19396;SDS011;9834;48.076;11.878;2023-07-24T14:25:18;4.20;;;2.15;;
19396;SDS011;9834;48.076;11.878;2023-07-24T14:27:46;2.85;;;2.65;;
19396;SDS011;9834;48.076;11.878;2023-07-24T14:30:13;3.42;;;2.78;;
19396;SDS011;9834;48.076;11.878;2023-07-24T14:32:40;2.88;;;2.05;;
19396;SDS011;9834;48.076;11.878;2023-07-24T14:35:07;6.25;;;2.65;;
19396;SDS011;9834;48.076;11.878;2023-07-24T14:37:34;3.33;;;2.42;;
19396;SDS011;9834;48.076;11.878;2023-07-24T14:40:01;1.92;;;1.65;;
19396;SDS011;9834;48.076;11.878;2023-07-24T14:42:28;3.28;;;2.63;;
19396;SDS011;9834;48.076;11.878;2023-07-24T14:44:56;2.45;;;2.20;;
19396;SDS011;9834;48.076;11.878;2023-07-24T14:47:27;3.97;;;2.80;;
19396;SDS011;9834;48.076;11.878;2023-07-24T14:49:57;6.32;;;2.67;;
19396;SDS011;9834;48.076;11.878;2023-07-24T14:52:24;2.92;;;2.60;;